createdAt,value
2017-10-18T00:02:24.720Z,100439.25
2017-10-18T00:04:52.118Z,100437.96
2017-10-18T00:07:19.514Z,100432.43
2017-10-18T00:09:46.902Z,100443.86
2017-10-18T00:12:14.305Z,100436.48
2017-10-18T00:14:41.705Z,100434.38
2017-10-18T00:17:09.106Z,100435.72
2017-10-18T00:19:36.561Z,100436.59
2017-10-18T00:22:03.982Z,100432.33
2017-10-18T00:24:31.365Z,100433.80
2017-10-18T00:26:58.802Z,100437.77
2017-10-18T00:29:26.194Z,100438.03
2017-10-18T00:31:53.589Z,100439.94
2017-10-18T00:34:20.999Z,100447.64
2017-10-18T00:36:48.410Z,100447.39
2017-10-18T00:39:15.797Z,100443.30
2017-10-18T00:41:43.205Z,100436.01
2017-10-18T00:44:10.613Z,100438.81
2017-10-18T00:46:38.018Z,100441.30
2017-10-18T00:49:05.410Z,100446.36
2017-10-18T00:51:32.802Z,100447.16
2017-10-18T00:54:00.197Z,100444.73
2017-10-18T00:56:27.606Z,100446.62
2017-10-18T00:58:54.997Z,100441.13
2017-10-18T01:01:22.385Z,100432.92
2017-10-18T01:03:49.805Z,100432.22
2017-10-18T01:06:17.211Z,100425.22
2017-10-18T01:08:44.605Z,100424.09
2017-10-18T01:11:12.007Z,100417.02
2017-10-18T01:13:39.409Z,100412.36
2017-10-18T01:16:06.826Z,100409.54
2017-10-18T01:18:34.245Z,100403.42
2017-10-18T01:21:01.624Z,100403.77
2017-10-18T01:23:29.018Z,100401.81
2017-10-18T01:25:56.443Z,100393.98
2017-10-18T01:28:23.842Z,100390.94
2017-10-18T01:30:51.238Z,100385.34
2017-10-18T01:33:18.643Z,100382.52
2017-10-18T01:35:46.065Z,100379.88
2017-10-18T01:38:13.451Z,100372.25
2017-10-18T01:40:40.854Z,100375.27
2017-10-18T01:43:08.254Z,100376.27
2017-10-18T01:45:35.650Z,100376.98
2017-10-18T01:48:03.062Z,100369.52
2017-10-18T01:50:30.450Z,100370.96
2017-10-18T01:52:57.850Z,100365.04
2017-10-18T01:55:25.258Z,100368.50
2017-10-18T01:57:52.653Z,100365.09
2017-10-18T02:00:20.049Z,100365.94
2017-10-18T02:02:47.494Z,100356.02
2017-10-18T02:05:14.898Z,100356.29
2017-10-18T02:07:42.318Z,100350.77
2017-10-18T02:10:09.730Z,100348.33
2017-10-18T02:12:37.113Z,100343.55
2017-10-18T02:15:04.534Z,100339.19
2017-10-18T02:17:31.966Z,100342.41
2017-10-18T02:19:59.362Z,100337.09
2017-10-18T02:22:26.754Z,100335.80
2017-10-18T02:24:54.162Z,100331.03
2017-10-18T02:27:21.553Z,100330.61
2017-10-18T02:29:48.966Z,100328.81
2017-10-18T02:32:16.370Z,100323.62
2017-10-18T02:34:43.766Z,100329.98
2017-10-18T02:37:11.165Z,100325.08
2017-10-18T02:39:38.586Z,100322.50
2017-10-18T02:42:06.009Z,100322.78
2017-10-18T02:44:33.434Z,100318.09
2017-10-18T02:47:00.842Z,100317.23
2017-10-18T02:49:28.238Z,100317.46
2017-10-18T02:51:55.632Z,100306.03
2017-10-18T02:54:23.041Z,100313.91
2017-10-18T02:56:50.432Z,100309.38
2017-10-18T02:59:17.829Z,100306.08
2017-10-18T03:01:45.244Z,100302.63
2017-10-18T03:04:12.641Z,100299.28
2017-10-18T03:06:40.030Z,100306.05
2017-10-18T03:09:07.442Z,100299.06
2017-10-18T03:11:34.857Z,100303.42
2017-10-18T03:14:02.266Z,100298.41
2017-10-18T03:16:29.691Z,100302.89
2017-10-18T03:18:57.126Z,100297.14
2017-10-18T03:21:24.509Z,100295.47
2017-10-18T03:23:51.910Z,100287.81
2017-10-18T03:26:19.312Z,100284.09
2017-10-18T03:28:46.701Z,100281.63
2017-10-18T03:31:14.107Z,100278.70
2017-10-18T03:33:41.505Z,100283.94
2017-10-18T03:36:08.913Z,100280.83
2017-10-18T03:38:36.328Z,100281.92
2017-10-18T03:41:03.718Z,100281.14
2017-10-18T03:43:31.105Z,100280.55
2017-10-18T03:45:58.525Z,100284.66
2017-10-18T03:48:25.918Z,100282.11
2017-10-18T03:50:53.309Z,100286.97
2017-10-18T03:53:20.709Z,100275.21
2017-10-18T03:55:48.122Z,100286.88
2017-10-18T03:58:15.522Z,100294.08
2017-10-18T04:00:42.929Z,100290.85
2017-10-18T04:03:10.327Z,100285.55
2017-10-18T04:05:37.731Z,100283.49
2017-10-18T04:08:05.130Z,100285.51
2017-10-18T04:10:32.528Z,100289.78
2017-10-18T04:12:59.914Z,100284.37
2017-10-18T04:15:27.330Z,100286.68
2017-10-18T04:17:54.725Z,100289.69
2017-10-18T04:20:22.122Z,100294.17
2017-10-18T04:22:49.525Z,100287.94
2017-10-18T04:25:16.922Z,100285.43
2017-10-18T04:27:44.314Z,100278.40
2017-10-18T04:30:11.718Z,100265.59
2017-10-18T04:32:39.118Z,100273.50
2017-10-18T04:35:06.526Z,100270.12
2017-10-18T04:37:33.934Z,100264.36
2017-10-18T04:40:01.321Z,100264.98
2017-10-18T04:42:28.710Z,100262.05
2017-10-18T04:44:56.117Z,100261.97
2017-10-18T04:47:23.522Z,100255.95
2017-10-18T04:49:50.927Z,100259.83
2017-10-18T04:52:18.333Z,100254.34
2017-10-18T04:54:45.725Z,100252.02
2017-10-18T04:57:13.114Z,100256.69
2017-10-18T04:59:40.536Z,100253.30
2017-10-18T05:02:07.922Z,100259.24
2017-10-18T05:04:35.332Z,100258.83
2017-10-18T05:07:02.743Z,100248.08
2017-10-18T05:09:30.133Z,100252.30
2017-10-18T05:11:57.525Z,100250.25
2017-10-18T05:14:25.378Z,100250.20
2017-10-18T05:16:52.783Z,100246.40
2017-10-18T05:19:20.200Z,100240.72
2017-10-18T05:21:47.607Z,100237.67
2017-10-18T05:24:15.013Z,100230.78
2017-10-18T05:26:42.406Z,100231.23
2017-10-18T05:29:10.676Z,100231.22
2017-10-18T05:31:38.047Z,100229.68
2017-10-18T05:34:05.461Z,100226.84
2017-10-18T05:36:32.936Z,100225.38
2017-10-18T05:39:00.317Z,100234.56
2017-10-18T05:41:27.718Z,100231.98
2017-10-18T05:43:55.147Z,100238.04
2017-10-18T05:46:22.567Z,100245.61
2017-10-18T05:48:49.975Z,100239.08
2017-10-18T05:51:17.367Z,100237.69
2017-10-18T05:53:44.758Z,100232.17
2017-10-18T05:56:12.150Z,100233.59
2017-10-18T05:58:39.566Z,100230.95
2017-10-18T06:01:06.981Z,100232.56
2017-10-18T06:03:34.431Z,100235.86
2017-10-18T06:06:01.830Z,100231.56
2017-10-18T06:08:29.254Z,100227.13
2017-10-18T06:10:56.662Z,100227.52
2017-10-18T06:13:24.057Z,100224.68
2017-10-18T06:15:51.486Z,100230.03
2017-10-18T06:18:18.881Z,100223.98
2017-10-18T06:20:46.326Z,100224.45
2017-10-18T06:23:13.701Z,100226.58
2017-10-18T06:25:41.122Z,100235.61
2017-10-18T06:28:08.532Z,100227.67
2017-10-18T06:30:35.929Z,100223.23
2017-10-18T06:33:03.348Z,100236.61
2017-10-18T06:35:30.757Z,100232.56
2017-10-18T06:37:58.875Z,100238.20
2017-10-18T06:40:26.259Z,100241.27
2017-10-18T06:42:53.682Z,100247.33
2017-10-18T06:45:21.069Z,100250.12
2017-10-18T06:47:48.457Z,100246.11
2017-10-18T06:50:15.866Z,100246.23
2017-10-18T06:52:43.261Z,100239.14
2017-10-18T06:55:10.650Z,100249.29
2017-10-18T06:57:38.135Z,100255.15
2017-10-18T07:00:05.526Z,100251.34
2017-10-18T07:02:32.941Z,100252.89
2017-10-18T07:05:00.387Z,100248.13
2017-10-18T07:07:27.815Z,100249.38
2017-10-18T07:09:55.283Z,100245.20
2017-10-18T07:12:22.687Z,100242.65
2017-10-18T07:14:50.084Z,100244.23
2017-10-18T07:17:17.506Z,100244.37
2017-10-18T07:19:44.953Z,100237.46
2017-10-18T07:22:12.413Z,100247.95
2017-10-18T07:24:39.789Z,100249.72
2017-10-18T07:27:07.204Z,100243.59
2017-10-18T07:29:34.630Z,100242.88
2017-10-18T07:32:02.036Z,100242.25
2017-10-18T07:34:29.482Z,100239.36
2017-10-18T07:36:56.898Z,100234.25
2017-10-18T07:39:24.293Z,100241.73
2017-10-18T07:41:51.717Z,100237.83
2017-10-18T07:44:19.150Z,100239.11
2017-10-18T07:46:46.546Z,100242.81
2017-10-18T07:49:13.954Z,100247.53
2017-10-18T07:51:41.366Z,100247.28
2017-10-18T07:54:09.070Z,100249.02
2017-10-18T07:56:36.553Z,100253.69
2017-10-18T07:59:03.994Z,100251.94
2017-10-18T08:01:31.394Z,100253.34
2017-10-18T08:03:58.816Z,100255.48
2017-10-18T08:06:26.203Z,100264.30
2017-10-18T08:08:53.629Z,100262.92
2017-10-18T08:11:21.078Z,100255.87
2017-10-18T08:13:48.466Z,100257.39
2017-10-18T08:16:15.868Z,100266.70
2017-10-18T08:18:43.298Z,100254.77
2017-10-18T08:21:10.725Z,100256.59
2017-10-18T08:23:38.106Z,100247.55
2017-10-18T08:26:05.514Z,100250.94
2017-10-18T08:28:32.930Z,100244.77
2017-10-18T08:31:00.354Z,100244.06
2017-10-18T08:33:27.780Z,100246.36
2017-10-18T08:35:55.200Z,100246.47
2017-10-18T08:38:22.598Z,100246.16
2017-10-18T08:40:50.029Z,100241.84
2017-10-18T08:43:17.417Z,100245.70
2017-10-18T08:45:44.838Z,100246.08
2017-10-18T08:48:12.262Z,100243.56
2017-10-18T08:50:39.713Z,100244.45
2017-10-18T08:53:07.128Z,100239.88
2017-10-18T08:55:34.610Z,100246.45
2017-10-18T08:58:02.014Z,100243.83
2017-10-18T09:00:29.457Z,100242.71
2017-10-18T09:02:56.863Z,100249.32
2017-10-18T09:05:24.307Z,100246.04
2017-10-18T09:07:51.739Z,100246.86
2017-10-18T09:10:19.193Z,100245.06
2017-10-18T09:12:46.611Z,100239.47
2017-10-18T09:15:14.055Z,100235.81
2017-10-18T09:17:41.467Z,100233.06
2017-10-18T09:20:08.860Z,100230.98
2017-10-18T09:22:36.290Z,100234.84
2017-10-18T09:25:03.710Z,100235.30
2017-10-18T09:27:31.099Z,100233.16
2017-10-18T09:29:58.505Z,100229.27
2017-10-18T09:32:25.940Z,100237.02
2017-10-18T09:34:53.377Z,100235.39
2017-10-18T09:37:20.787Z,100232.33
2017-10-18T09:39:48.189Z,100235.73
2017-10-18T09:42:15.610Z,100228.11
2017-10-18T09:44:42.997Z,100231.36
2017-10-18T09:47:10.425Z,100231.14
2017-10-18T09:49:37.821Z,100226.87
2017-10-18T09:52:05.217Z,100227.36
2017-10-18T09:54:32.622Z,100229.70
2017-10-18T09:57:00.051Z,100228.17
2017-10-18T09:59:27.419Z,100224.00
2017-10-18T10:01:54.822Z,100221.02
2017-10-18T10:04:22.220Z,100217.28
2017-10-18T10:06:49.606Z,100215.39
2017-10-18T10:09:17.006Z,100227.75
2017-10-18T10:11:44.402Z,100226.73
2017-10-18T10:14:11.798Z,100229.11
2017-10-18T10:16:39.204Z,100226.97
2017-10-18T10:19:06.595Z,100227.22
2017-10-18T10:21:33.987Z,100228.18
2017-10-18T10:24:01.386Z,100231.39
2017-10-18T10:26:28.778Z,100219.70
2017-10-18T10:28:56.166Z,100222.18
2017-10-18T10:31:23.578Z,100215.81
2017-10-18T10:33:50.978Z,100224.08
2017-10-18T10:36:18.378Z,100221.83
2017-10-18T10:38:45.783Z,100227.88
2017-10-18T10:41:13.169Z,100221.26
2017-10-18T10:43:40.587Z,100221.73
2017-10-18T10:46:08.009Z,100223.98
2017-10-18T10:48:35.393Z,100225.50
2017-10-18T10:51:02.827Z,100224.58
2017-10-18T10:53:30.225Z,100228.67
2017-10-18T10:55:57.618Z,100220.84
2017-10-18T10:58:25.011Z,100224.49
2017-10-18T11:00:52.415Z,100220.97
2017-10-18T11:03:19.802Z,100214.90
2017-10-18T11:05:47.190Z,100216.22
2017-10-18T11:08:14.599Z,100219.55
2017-10-18T11:10:41.995Z,100219.08
2017-10-18T11:13:09.378Z,100217.22
2017-10-18T11:15:36.784Z,100214.59
2017-10-18T11:18:04.170Z,100210.63
2017-10-18T11:20:31.616Z,100210.63
2017-10-18T11:22:59.007Z,100200.63
2017-10-18T11:25:26.393Z,100205.56
2017-10-18T11:27:53.788Z,100201.80
2017-10-18T11:30:21.207Z,100192.53
2017-10-18T11:32:48.606Z,100195.63
2017-10-18T11:35:15.990Z,100186.25
2017-10-18T11:37:43.398Z,100185.56
2017-10-18T11:40:10.790Z,100188.85
2017-10-18T11:42:38.185Z,100184.88
2017-10-18T11:45:05.597Z,100180.16
2017-10-18T11:47:32.985Z,100176.77
2017-10-18T11:50:00.382Z,100174.10
2017-10-18T11:52:27.785Z,100171.09
2017-10-18T11:54:55.181Z,100173.94
2017-10-18T11:57:22.567Z,100166.59
2017-10-18T11:59:49.973Z,100164.77
2017-10-18T12:02:17.367Z,100164.78
2017-10-18T12:04:44.758Z,100164.62
2017-10-18T12:07:12.162Z,100157.38
2017-10-18T12:09:39.558Z,100156.89
2017-10-18T12:12:06.987Z,100149.96
2017-10-18T12:14:34.361Z,100144.80
2017-10-18T12:17:01.754Z,100147.28
2017-10-18T12:19:29.154Z,100144.34
2017-10-18T12:21:56.558Z,100136.28
2017-10-18T12:24:23.950Z,100140.00
2017-10-18T12:26:51.337Z,100137.78
2017-10-18T12:29:18.743Z,100136.63
2017-10-18T12:31:46.145Z,100142.45
2017-10-18T12:34:13.527Z,100133.14
2017-10-18T12:36:40.928Z,100139.05
2017-10-18T12:39:08.320Z,100135.42
2017-10-18T12:41:35.714Z,100134.88
2017-10-18T12:44:03.109Z,100137.48
2017-10-18T12:46:30.506Z,100129.13
2017-10-18T12:48:57.902Z,100130.53
2017-10-18T12:51:25.321Z,100120.98
2017-10-18T12:53:52.706Z,100124.32
2017-10-18T12:56:20.765Z,100122.49
2017-10-18T12:58:48.173Z,100117.09
2017-10-18T13:01:15.570Z,100120.11
2017-10-18T13:03:42.963Z,100121.20
2017-10-18T13:06:11.609Z,100109.62
2017-10-18T13:08:39.006Z,100119.02
2017-10-18T13:11:06.406Z,100106.52
2017-10-18T13:13:33.806Z,100108.42
2017-10-18T13:16:01.199Z,100111.64
2017-10-18T13:18:28.601Z,100105.64
2017-10-18T13:20:56.002Z,100105.07
2017-10-18T13:23:23.389Z,100106.55
2017-10-18T13:25:50.818Z,100098.64
2017-10-18T13:28:18.214Z,100099.23
2017-10-18T13:30:45.602Z,100104.95
2017-10-18T13:33:13.009Z,100101.61
2017-10-18T13:35:41.221Z,100104.94
2017-10-18T13:38:08.610Z,100107.26
2017-10-18T13:40:36.014Z,100106.11
2017-10-18T13:43:03.410Z,100100.61
2017-10-18T13:45:30.802Z,100102.20
2017-10-18T13:47:58.207Z,100106.59
2017-10-18T13:50:25.594Z,100102.24
2017-10-18T13:52:52.990Z,100101.37
2017-10-18T13:55:20.394Z,100098.61
2017-10-18T13:57:47.790Z,100104.47
2017-10-18T14:00:15.179Z,100096.87
2017-10-18T14:02:42.587Z,100093.94
2017-10-18T14:05:09.974Z,100095.00
2017-10-18T14:07:37.415Z,100094.77
2017-10-18T14:10:04.819Z,100091.06
2017-10-18T14:12:32.217Z,100093.41
2017-10-18T14:14:59.976Z,100093.09
2017-10-18T14:17:27.425Z,100090.21
2017-10-18T14:19:54.895Z,100091.28
2017-10-18T14:22:22.323Z,100092.45
2017-10-18T14:24:49.786Z,100087.64
2017-10-18T14:27:17.217Z,100085.94
2017-10-18T14:29:44.660Z,100084.19
2017-10-18T14:32:12.063Z,100080.11
2017-10-18T14:34:39.505Z,100084.87
2017-10-18T14:37:08.131Z,100081.17
2017-10-18T14:39:35.534Z,100081.49
2017-10-18T14:42:03.070Z,100080.33
2017-10-18T14:44:30.457Z,100078.99
2017-10-18T14:46:57.863Z,100086.30
2017-10-18T14:49:25.259Z,100083.88
2017-10-18T14:51:54.345Z,100087.70
2017-10-18T14:54:21.742Z,100087.79
2017-10-18T14:56:49.141Z,100084.13
2017-10-18T14:59:16.538Z,100088.59
2017-10-18T15:01:43.946Z,100082.48
2017-10-18T15:04:11.330Z,100081.35
2017-10-18T15:06:38.717Z,100085.73
2017-10-18T15:09:06.129Z,100076.43
2017-10-18T15:11:33.522Z,100083.99
2017-10-18T15:14:00.915Z,100078.66
2017-10-18T15:16:28.317Z,100078.55
2017-10-18T15:18:55.711Z,100074.95
2017-10-18T15:21:23.101Z,100080.36
2017-10-18T15:23:50.510Z,100084.87
2017-10-18T15:26:17.908Z,100082.36
2017-10-18T15:28:45.297Z,100088.98
2017-10-18T15:31:12.697Z,100084.86
2017-10-18T15:33:40.101Z,100085.35
2017-10-18T15:36:07.486Z,100079.06
2017-10-18T15:38:34.890Z,100088.65
2017-10-18T15:41:02.290Z,100079.67
2017-10-18T15:43:29.687Z,100080.05
2017-10-18T15:45:57.086Z,100080.13
2017-10-18T15:48:24.486Z,100079.42
2017-10-18T15:50:51.878Z,100080.28
2017-10-18T15:53:19.281Z,100079.41
2017-10-18T15:55:46.678Z,100080.34
2017-10-18T15:58:14.070Z,100082.58
2017-10-18T16:00:41.491Z,100083.05
2017-10-18T16:03:08.880Z,100078.13
2017-10-18T16:05:36.278Z,100078.31
2017-10-18T16:08:03.686Z,100087.01
2017-10-18T16:10:31.073Z,100083.42
2017-10-18T16:12:58.469Z,100078.18
2017-10-18T16:15:25.876Z,100083.22
2017-10-18T16:17:53.269Z,100090.29
2017-10-18T16:20:20.663Z,100087.36
2017-10-18T16:22:50.130Z,100085.84
2017-10-18T16:25:17.518Z,100086.66
2017-10-18T16:27:44.916Z,100087.36
2017-10-18T16:30:12.316Z,100087.87
2017-10-18T16:32:39.706Z,100091.54
2017-10-18T16:35:07.097Z,100084.89
2017-10-18T16:37:34.501Z,100086.80
2017-10-18T16:40:01.894Z,100085.56
2017-10-18T16:42:29.290Z,100091.09
2017-10-18T16:44:56.686Z,100095.63
2017-10-18T16:47:24.089Z,100097.08
2017-10-18T16:49:51.474Z,100097.45
2017-10-18T16:52:18.882Z,100090.27
2017-10-18T16:54:46.278Z,100087.55
2017-10-18T16:57:13.671Z,100095.73
2017-10-18T16:59:41.078Z,100088.69
2017-10-18T17:02:08.474Z,100092.20
2017-10-18T17:04:35.861Z,100100.67
2017-10-18T17:07:03.274Z,100091.75
2017-10-18T17:09:30.661Z,100096.02
2017-10-18T17:11:58.061Z,100093.13
2017-10-18T17:14:25.462Z,100093.11
2017-10-18T17:16:52.853Z,100088.71
2017-10-18T17:19:20.246Z,100091.50
2017-10-18T17:21:47.652Z,100083.20
2017-10-18T17:24:15.052Z,100082.89
2017-10-18T17:26:42.447Z,100086.64
2017-10-18T17:29:09.854Z,100093.70
2017-10-18T17:31:37.245Z,100083.77
2017-10-18T17:34:04.642Z,100093.09
2017-10-18T17:36:32.133Z,100090.95
2017-10-18T17:38:59.506Z,100094.72
2017-10-18T17:41:26.899Z,100090.78
2017-10-18T17:43:54.307Z,100094.72
2017-10-18T17:46:21.693Z,100095.90
2017-10-18T17:48:49.099Z,100090.20
2017-10-18T17:51:16.489Z,100098.67
2017-10-18T17:53:43.885Z,100091.80
2017-10-18T17:56:11.273Z,100097.25
2017-10-18T17:58:38.674Z,100094.56
2017-10-18T18:01:06.066Z,100092.45
2017-10-18T18:03:36.867Z,100096.53
2017-10-18T18:06:04.275Z,100097.80
2017-10-18T18:08:31.671Z,100102.53
2017-10-18T18:11:13.261Z,100102.22
2017-10-18T18:13:40.664Z,100108.09
2017-10-18T18:16:08.050Z,100106.59
2017-10-18T18:18:35.470Z,100102.44
2017-10-18T18:21:11.466Z,100106.76
2017-10-18T18:23:38.880Z,100103.47
2017-10-18T18:26:06.282Z,100110.39
2017-10-18T18:28:33.673Z,100112.20
2017-10-18T18:31:01.078Z,100112.02
2017-10-18T18:33:28.474Z,100115.59
2017-10-18T18:35:55.861Z,100114.25
2017-10-18T18:38:27.103Z,100115.83
2017-10-18T18:40:54.923Z,100119.31
2017-10-18T18:43:22.509Z,100119.27
2017-10-18T18:45:51.634Z,100118.89
2017-10-18T18:48:19.404Z,100125.02
2017-10-18T18:50:47.045Z,100119.50
2017-10-18T18:53:14.659Z,100125.91
2017-10-18T18:55:42.470Z,100121.58
2017-10-18T18:58:09.908Z,100128.83
2017-10-18T19:00:37.485Z,100123.58
2017-10-18T19:03:05.110Z,100128.55
2017-10-18T19:05:36.018Z,100122.19
2017-10-18T19:08:03.426Z,100122.83
2017-10-18T19:10:30.819Z,100121.68
2017-10-18T19:12:58.254Z,100126.87
2017-10-18T19:15:25.668Z,100131.41
2017-10-18T19:17:53.052Z,100127.59
2017-10-18T19:20:20.446Z,100126.21
2017-10-18T19:22:47.894Z,100127.63
2017-10-18T19:25:15.289Z,100128.52
2017-10-18T19:27:42.677Z,100121.45
2017-10-18T19:30:10.094Z,100123.27
2017-10-18T19:32:37.488Z,100126.70
2017-10-18T19:35:04.895Z,100127.67
2017-10-18T19:37:32.321Z,100122.24
2017-10-18T19:39:59.715Z,100125.17
2017-10-18T19:42:27.102Z,100128.53
2017-10-18T19:44:55.623Z,100130.48
2017-10-18T19:47:23.019Z,100131.63
2017-10-18T19:49:50.406Z,100126.86
2017-10-18T19:52:17.817Z,100125.89
2017-10-18T19:54:45.225Z,100132.54
2017-10-18T19:57:12.629Z,100128.18
2017-10-18T19:59:45.762Z,100131.75
2017-10-18T20:02:13.150Z,100137.61
2017-10-18T20:04:40.543Z,100137.69
2017-10-18T20:07:07.966Z,100136.14
2017-10-18T20:09:35.352Z,100139.38
2017-10-18T20:12:02.738Z,100136.05
2017-10-18T20:14:30.158Z,100137.42
2017-10-18T20:16:57.561Z,100139.67
2017-10-18T20:19:24.953Z,100141.22
2017-10-18T20:21:52.365Z,100143.98
2017-10-18T20:24:19.757Z,100133.19
2017-10-18T20:26:47.155Z,100138.28
2017-10-18T20:29:14.587Z,100137.86
2017-10-18T20:31:41.970Z,100141.19
2017-10-18T20:34:09.374Z,100140.68
2017-10-18T20:36:36.774Z,100136.09
2017-10-18T20:39:04.171Z,100135.75
2017-10-18T20:41:40.105Z,100134.74
2017-10-18T20:44:07.495Z,100139.85
2017-10-18T20:46:34.886Z,100144.52
2017-10-18T20:49:02.293Z,100140.62
2017-10-18T20:51:29.682Z,100146.48
2017-10-18T20:53:57.074Z,100147.55
2017-10-18T20:56:24.473Z,100137.58
2017-10-18T20:58:51.873Z,100138.07
2017-10-18T21:01:19.262Z,100138.66
2017-10-18T21:03:46.666Z,100131.66
2017-10-18T21:06:14.065Z,100133.52
2017-10-18T21:08:41.465Z,100129.91
2017-10-18T21:11:08.870Z,100128.39
2017-10-18T21:13:36.278Z,100126.37
2017-10-18T21:16:03.661Z,100127.05
2017-10-18T21:18:31.069Z,100127.50
2017-10-18T21:20:58.453Z,100130.89
2017-10-18T21:23:25.851Z,100124.53
2017-10-18T21:25:53.262Z,100124.13
2017-10-18T21:28:20.649Z,100122.63
2017-10-18T21:30:48.050Z,100120.71
2017-10-18T21:33:15.459Z,100120.45
2017-10-18T21:35:42.850Z,100120.64
2017-10-18T21:38:10.246Z,100121.35
2017-10-18T21:40:37.659Z,100116.90
2017-10-18T21:43:05.050Z,100117.31
2017-10-18T21:45:32.446Z,100116.81
2017-10-18T21:47:59.851Z,100120.27
2017-10-18T21:50:27.247Z,100117.86
2017-10-18T21:52:54.637Z,100117.50
2017-10-18T21:55:22.041Z,100122.40
2017-10-18T21:57:49.433Z,100116.95
2017-10-18T22:00:16.830Z,100117.16
2017-10-18T22:02:44.241Z,100125.08
2017-10-18T22:05:11.634Z,100125.97
2017-10-18T22:07:39.031Z,100126.17
2017-10-18T22:10:06.438Z,100125.95
2017-10-18T22:12:33.822Z,100119.83
2017-10-18T22:15:01.222Z,100125.41
2017-10-18T22:17:28.629Z,100127.23
2017-10-18T22:19:56.026Z,100128.06
2017-10-18T22:22:23.421Z,100129.92
2017-10-18T22:24:50.826Z,100128.99
2017-10-18T22:27:18.215Z,100131.58
2017-10-18T22:29:45.605Z,100129.38
2017-10-18T22:32:13.015Z,100136.66
2017-10-18T22:34:40.411Z,100139.41
2017-10-18T22:37:07.794Z,100135.86
2017-10-18T22:39:35.195Z,100144.77
2017-10-18T22:42:02.585Z,100138.45
2017-10-18T22:44:29.982Z,100142.12
2017-10-18T22:46:57.401Z,100140.20
2017-10-18T22:49:24.790Z,100137.58
2017-10-18T22:51:52.184Z,100137.39
2017-10-18T22:54:19.581Z,100145.69
2017-10-18T22:56:46.979Z,100140.03
2017-10-18T22:59:14.371Z,100137.58
2017-10-18T23:01:41.776Z,100140.80
2017-10-18T23:04:09.165Z,100135.66
2017-10-18T23:06:36.562Z,100131.23
2017-10-18T23:09:03.977Z,100127.27
2017-10-18T23:11:31.370Z,100128.25
2017-10-18T23:13:58.778Z,100128.42
2017-10-18T23:16:26.198Z,100137.64
2017-10-18T23:18:53.608Z,100130.23
2017-10-18T23:21:20.993Z,100126.38
2017-10-18T23:23:48.409Z,100128.97
2017-10-18T23:26:15.813Z,100129.70
2017-10-18T23:28:43.214Z,100128.58
2017-10-18T23:31:10.622Z,100124.78
2017-10-18T23:33:38.019Z,100120.55
2017-10-18T23:36:05.408Z,100117.73
2017-10-18T23:38:32.814Z,100121.14
2017-10-18T23:41:00.209Z,100130.97
2017-10-18T23:43:27.606Z,100122.98
2017-10-18T23:45:55.025Z,100125.41
2017-10-18T23:48:22.413Z,100124.20
2017-10-18T23:50:49.806Z,100126.84
2017-10-18T23:53:17.218Z,100126.06
2017-10-18T23:55:44.614Z,100120.62
2017-10-18T23:58:12.006Z,100124.44
